Time;durP1;ratioP1;P1;durP2;ratioP2;P2;SDS_P1;SDS_P2;PMS_P1;PMS_P2;Temp;Humidity;BMP_temperature;BMP_pressure;BME280_temperature;BME280_humidity;BME280_pressure;Samples;Min_cycle;Max_cycle;Signal;HPM_P1;HPM_P2
2022/10/26 00:01:02;;;;;;;17.13;3.67;;;22.60;98.40;;;;;;5011088;28;20018;-76
2022/10/26 00:03:31;;;;;;;14.80;2.97;;;22.60;98.30;;;;;;5010664;28;20080;-76
2022/10/26 00:06:06;;;;;;;15.63;3.15;;;22.70;98.20;;;;;;5010873;28;20026;-76
2022/10/26 00:08:33;;;;;;;13.52;3.25;;;22.70;98.30;;;;;;5011208;28;20029;-76
2022/10/26 00:11:00;;;;;;;22.05;3.40;;;22.60;98.10;;;;;;5011312;28;20038;-75
2022/10/26 00:13:26;;;;;;;;;;;22.60;98.40;;;;;;5011539;28;20471;-76
2022/10/26 00:15:54;;;;;;;14.02;2.53;;;22.40;98.60;;;;;;5011068;28;20303;-76
2022/10/26 00:18:26;;;;;;;20.02;3.03;;;22.40;98.50;;;;;;4993534;28;20104;-75
2022/10/26 00:21:17;;;;;;;12.82;2.85;;;22.40;98.50;;;;;;4977485;28;20030;-76
2022/10/26 00:23:43;;;;;;;15.80;2.88;;;22.40;98.40;;;;;;5010789;28;20029;-76
2022/10/26 00:26:09;;;;;;;15.85;2.72;;;22.30;98.50;;;;;;5010591;28;20026;-75
2022/10/26 00:28:35;;;;;;;16.77;3.58;;;22.30;98.80;;;;;;5011037;28;20308;-75
2022/10/26 00:31:07;;;;;;;13.88;3.33;;;22.20;98.90;;;;;;5010999;28;20025;-74
2022/10/26 00:33:33;;;;;;;21.20;3.70;;;22.10;98.90;;;;;;5011122;28;20032;-76
2022/10/26 00:35:59;;;;;;;16.75;3.13;;;22.00;99.10;;;;;;5010638;28;20029;-76
2022/10/26 00:38:28;;;;;;;20.98;3.85;;;22.00;99.10;;;;;;5010943;28;20034;-76
2022/10/26 00:40:56;;;;;;;15.10;3.53;;;21.90;99.20;;;;;;5010951;28;20022;-76
2022/10/26 00:43:22;;;;;;;11.43;2.85;;;22.00;99.00;;;;;;4993743;28;20042;-75
2022/10/26 00:45:55;;;;;;;14.32;2.80;;;22.10;98.90;;;;;;5010879;28;20018;-75
2022/10/26 00:48:28;;;;;;;22.48;3.20;;;22.30;98.90;;;;;;5010860;28;20034;-76
2022/10/26 00:51:37;;;;;;;17.25;3.83;;;22.40;98.60;;;;;;5007115;28;20089;-75
2022/10/26 00:54:09;;;;;;;19.42;3.33;;;22.30;98.60;;;;;;5011002;28;20117;-75
2022/10/26 00:56:36;;;;;;;13.32;2.85;;;22.40;98.60;;;;;;5010866;28;20107;-76
2022/10/26 00:59:16;;;;;;;12.25;2.70;;;22.40;98.80;;;;;;5010755;28;20029;-74
2022/10/26 01:01:48;;;;;;;16.50;3.22;;;22.30;98.60;;;;;;4992871;28;20471;-75
2022/10/26 01:04:15;;;;;;;16.30;3.35;;;22.30;98.70;;;;;;5010683;28;20049;-75
2022/10/26 01:06:43;;;;;;;20.95;3.25;;;22.20;98.80;;;;;;5010647;28;20025;-74
2022/10/26 01:09:11;;;;;;;12.90;2.80;;;22.20;98.70;;;;;;5010736;28;20042;-75
2022/10/26 01:11:37;;;;;;;25.05;4.03;;;22.10;98.60;;;;;;5010548;28;20354;-72
2022/10/26 01:14:08;;;;;;;14.32;3.25;;;22.10;98.60;;;;;;4976607;28;20136;-74
2022/10/26 01:17:00;;;;;;;19.25;3.28;;;22.20;98.70;;;;;;4995878;28;20030;-75
2022/10/26 01:19:56;;;;;;;16.65;3.60;;;22.10;98.80;;;;;;5014429;28;20427;-75
2022/10/26 01:22:43;;;;;;;14.02;3.00;;;22.00;98.90;;;;;;5014317;28;20045;-74
2022/10/26 01:25:24;;;;;;;12.68;2.80;;;21.80;99.10;;;;;;5014363;28;20488;-74
2022/10/26 01:27:53;;;;;;;13.93;2.47;;;21.80;99.00;;;;;;5014167;28;20119;-74
2022/10/26 01:30:35;;;;;;;16.58;2.95;;;21.80;98.90;;;;;;5014059;28;20111;-75
2022/10/26 01:33:11;;;;;;;12.10;2.42;;;21.80;98.90;;;;;;5013986;28;20026;-73
2022/10/26 01:36:07;;;;;;;16.27;2.97;;;21.80;98.70;;;;;;4996302;28;20045;-74
2022/10/26 01:38:52;;;;;;;12.60;2.83;;;21.80;98.50;;;;;;4953663;29;20329;-75
2022/10/26 01:41:24;;;;;;;11.35;2.72;;;21.80;98.40;;;;;;4936876;29;20453;-75
2022/10/26 01:43:56;;;;;;;20.52;3.10;;;21.90;98.20;;;;;;4953447;29;20126;-75
2022/10/26 01:46:26;;;;;;;13.45;2.83;;;22.00;98.00;;;;;;4951280;29;20035;-75
2022/10/26 01:48:57;;;;;;;14.82;2.45;;;22.00;97.90;;;;;;4953063;29;20035;-74
2022/10/26 01:51:25;;;;;;;16.55;2.75;;;22.10;98.00;;;;;;4952734;29;20155;-72
2022/10/26 01:54:11;;;;;;;17.90;2.78;;;22.00;98.10;;;;;;4936743;29;20039;-74
2022/10/26 01:56:47;;;;;;;15.75;2.60;;;22.00;98.10;;;;;;4952799;29;20444;-75
2022/10/26 01:59:46;;;;;;;10.07;3.03;;;21.90;98.20;;;;;;4952783;29;20054;-75
2022/10/26 02:02:49;;;;;;;9.85;2.33;;;21.90;98.10;;;;;;4942319;29;20031;-75
2022/10/26 02:05:36;;;;;;;17.63;2.75;;;21.90;97.90;;;;;;4952922;29;20419;-75
2022/10/26 02:08:44;;;;;;;17.30;2.80;;;22.00;97.80;;;;;;4952435;29;20047;-75
2022/10/26 02:11:40;;;;;;;14.60;2.95;;;22.10;97.80;;;;;;4952884;29;20106;-75
2022/10/26 02:14:17;;;;;;;14.02;2.10;;;22.00;97.60;;;;;;4961968;28;20066;-75
2022/10/26 02:17:32;;;;;;;17.17;2.88;;;22.20;97.50;;;;;;5013434;28;20021;-75
2022/10/26 02:20:04;;;;;;;12.98;2.45;;;22.20;97.50;;;;;;4995586;28;20049;-75
2022/10/26 02:22:38;;;;;;;16.80;2.33;;;22.30;97.50;;;;;;5013199;28;20115;-74
2022/10/26 02:25:16;;;;;;;18.15;2.67;;;22.30;97.40;;;;;;5012836;28;20021;-75
2022/10/26 02:27:49;;;;;;;12.93;2.75;;;22.30;97.40;;;;;;5012455;28;20042;-75
2022/10/26 02:30:15;;;;;;;11.00;2.30;;;22.20;97.50;;;;;;5012821;28;20088;-75
2022/10/26 02:32:47;;;;;;;15.85;3.15;;;22.20;97.50;;;;;;5012663;28;20049;-76
2022/10/26 02:35:16;;;;;;;10.75;1.88;;;22.00;97.60;;;;;;5012930;28;20112;-75
2022/10/26 02:37:45;;;;;;;11.73;2.50;;;22.00;97.60;;;;;;5012857;28;20041;-75
2022/10/26 02:40:24;;;;;;;15.10;2.35;;;22.00;97.70;;;;;;5012544;28;20032;-74
2022/10/26 02:42:53;;;;;;;17.60;2.92;;;22.00;97.60;;;;;;5012584;28;20022;-75
2022/10/26 02:45:33;;;;;;;11.85;2.88;;;22.00;97.60;;;;;;5012750;28;20040;-76
2022/10/26 02:47:59;;;;;;;16.77;2.72;;;22.10;97.60;;;;;;5012368;28;20155;-75
2022/10/26 02:50:49;;;;;;;7.35;2.17;;;22.00;97.60;;;;;;5011647;28;20140;-75
2022/10/26 02:53:24;;;;;;;11.25;2.72;;;22.10;97.60;;;;;;5011996;28;20482;-74
2022/10/26 02:55:51;;;;;;;9.35;2.25;;;22.00;97.70;;;;;;5012323;28;20038;-75
2022/10/26 02:58:29;;;;;;;12.90;3.42;;;22.00;97.90;;;;;;5013138;28;20029;-74
2022/10/26 03:00:57;;;;;;;11.23;2.92;;;21.90;98.10;;;;;;4995641;28;20038;-75
2022/10/26 03:03:24;;;;;;;16.60;2.92;;;21.70;98.30;;;;;;5012857;28;20041;-75
2022/10/26 03:05:51;;;;;;;16.88;3.00;;;21.50;98.40;;;;;;5012675;28;20053;-75
2022/10/26 03:08:17;;;;;;;21.55;3.13;;;21.50;98.60;;;;;;5012793;28;20125;-75
2022/10/26 03:10:45;;;;;;;13.15;2.95;;;21.50;98.60;;;;;;5012849;28;20062;-75
2022/10/26 03:13:14;;;;;;;15.80;2.58;;;21.50;98.50;;;;;;5012699;28;20109;-75
2022/10/26 03:15:40;;;;;;;15.73;3.17;;;21.40;98.50;;;;;;5012413;28;20036;-76
2022/10/26 03:18:07;;;;;;;20.65;3.47;;;21.30;98.60;;;;;;5012649;28;20030;-76
2022/10/26 03:20:53;;;;;;;22.35;2.85;;;21.30;98.70;;;;;;5012413;28;20562;-74
2022/10/26 03:23:19;;;;;;;15.73;3.00;;;21.30;98.60;;;;;;5011716;28;20438;-76
2022/10/26 03:25:45;;;;;;;15.98;2.97;;;21.30;98.60;;;;;;5013509;28;20030;-75
2022/10/26 03:28:11;;;;;;;14.68;2.85;;;21.30;98.70;;;;;;5012837;28;20127;-76
2022/10/26 03:30:57;;;;;;;13.45;2.67;;;21.30;98.90;;;;;;5012551;28;20061;-76
2022/10/26 03:33:44;;;;;;;16.92;3.05;;;21.30;98.50;;;;;;5013045;28;20036;-76
2022/10/26 03:36:11;;;;;;;18.80;3.00;;;21.40;98.40;;;;;;5013303;28;20455;-75
2022/10/26 03:38:37;;;;;;;10.75;2.42;;;21.50;98.30;;;;;;5012146;28;20050;-74
2022/10/26 03:41:03;;;;;;;14.48;2.65;;;21.70;98.10;;;;;;5012869;28;20025;-75
2022/10/26 03:43:29;;;;;;;12.57;2.50;;;21.80;97.90;;;;;;5013246;28;20109;-75
2022/10/26 03:45:56;;;;;;;16.27;2.70;;;21.90;97.80;;;;;;5013708;28;20034;-74
2022/10/26 03:48:22;;;;;;;12.93;2.60;;;21.90;97.80;;;;;;5019323;28;20096;-75
2022/10/26 03:50:49;;;;;;;16.70;3.47;;;21.90;97.80;;;;;;5032193;28;20049;-76
2022/10/26 03:53:15;;;;;;;16.23;3.08;;;21.90;97.90;;;;;;5032804;28;20087;-74
2022/10/26 03:55:45;;;;;;;17.67;3.08;;;21.80;97.80;;;;;;5032620;28;20080;-75
2022/10/26 03:58:12;;;;;;;14.55;2.72;;;21.80;97.90;;;;;;5030777;28;20032;-77
2022/10/26 04:00:38;;;;;;;10.68;2.67;;;21.80;97.90;;;;;;5018366;28;20156;-74
2022/10/26 04:03:05;;;;;;;21.45;3.10;;;21.80;97.90;;;;;;4998820;28;20225;-75
2022/10/26 04:05:38;;;;;;;18.15;3.63;;;21.90;97.90;;;;;;5000708;28;20478;-75
2022/10/26 04:08:05;;;;;;;18.45;3.58;;;21.90;97.90;;;;;;5004160;28;20088;-75
2022/10/26 04:10:35;;;;;;;15.98;2.70;;;21.80;98.00;;;;;;5012325;28;20060;-76
2022/10/26 04:13:02;;;;;;;12.73;2.78;;;21.70;98.10;;;;;;5012684;28;20025;-76
2022/10/26 04:15:38;;;;;;;15.00;2.60;;;21.60;98.30;;;;;;5004970;28;20097;-76
2022/10/26 04:18:07;;;;;;;19.05;2.97;;;21.60;98.20;;;;;;5008995;28;20034;-75
2022/10/26 04:20:35;;;;;;;18.38;3.22;;;21.70;98.00;;;;;;5004601;28;20095;-76
2022/10/26 04:23:04;;;;;;;37.83;5.38;;;21.70;97.90;;;;;;5004163;28;20033;-75
2022/10/26 04:25:32;;;;;;;19.10;3.72;;;21.70;98.00;;;;;;5002842;28;20076;-75
2022/10/26 04:28:01;;;;;;;9.13;2.30;;;21.70;97.90;;;;;;5010346;28;20048;-75
2022/10/26 04:30:36;;;;;;;16.25;3.40;;;21.70;97.80;;;;;;4986159;28;20053;-74
2022/10/26 04:33:03;;;;;;;15.52;3.08;;;21.80;97.80;;;;;;5001138;28;20371;-74
2022/10/26 04:35:31;;;;;;;11.20;2.72;;;21.80;97.60;;;;;;5002873;28;20078;-73
2022/10/26 04:38:02;;;;;;;12.50;2.95;;;21.90;97.70;;;;;;5001161;28;20080;-75
2022/10/26 04:40:30;;;;;;;15.30;3.17;;;21.80;97.90;;;;;;5010637;28;20120;-76
2022/10/26 04:42:56;;;;;;;9.32;2.50;;;21.70;97.90;;;;;;5010977;28;20481;-75
2022/10/26 04:45:29;;;;;;;13.48;2.65;;;21.60;98.10;;;;;;5011009;28;20097;-76
2022/10/26 04:48:07;;;;;;;15.85;3.10;;;21.50;97.90;;;;;;5008459;28;20362;-74
2022/10/26 04:50:35;;;;;;;16.02;2.83;;;21.60;97.90;;;;;;5005138;28;20042;-76
2022/10/26 04:53:04;;;;;;;16.35;2.70;;;21.60;97.80;;;;;;5011804;28;21178;-74
2022/10/26 04:55:30;;;;;;;15.18;3.10;;;21.50;97.70;;;;;;5010732;28;20037;-76
2022/10/26 04:57:56;;;;;;;12.93;2.58;;;21.60;97.60;;;;;;5019624;28;20034;-76
2022/10/26 05:00:23;;;;;;;12.25;2.47;;;21.70;97.50;;;;;;5015903;28;20018;-75
2022/10/26 05:02:49;;;;;;;12.98;3.05;;;21.70;97.60;;;;;;5029613;28;20465;-76
2022/10/26 05:05:16;;;;;;;17.83;2.85;;;21.70;97.60;;;;;;5035966;28;20061;-76
2022/10/26 05:07:42;;;;;;;15.82;2.72;;;21.60;97.70;;;;;;5020079;28;20044;-75
2022/10/26 05:10:09;;;;;;;14.73;3.05;;;21.40;97.70;;;;;;5016211;28;20114;-74
2022/10/26 05:12:35;;;;;;;18.55;2.95;;;21.50;97.50;;;;;;5016237;28;20018;-77
2022/10/26 05:15:02;;;;;;;19.50;3.38;;;21.60;97.50;;;;;;5016263;28;20136;-76
2022/10/26 05:17:28;;;;;;;15.30;2.85;;;21.60;97.50;;;;;;5016162;28;20037;-76
2022/10/26 05:19:55;;;;;;;17.73;2.97;;;21.50;97.50;;;;;;5015979;28;20488;-73
2022/10/26 05:22:23;;;;;;;12.95;2.67;;;21.50;97.60;;;;;;5015975;28;20109;-76
2022/10/26 05:24:49;;;;;;;18.90;3.28;;;21.50;97.60;;;;;;5016545;28;20018;-77
2022/10/26 05:27:16;;;;;;;19.08;3.28;;;21.50;97.50;;;;;;5016180;28;20469;-77
2022/10/26 05:29:44;;;;;;;10.15;2.65;;;21.40;97.60;;;;;;5015598;28;20501;-77
2022/10/26 05:32:11;;;;;;;18.58;2.60;;;21.50;97.40;;;;;;5016015;28;20407;-76
2022/10/26 05:34:37;;;;;;;20.42;2.70;;;21.50;97.30;;;;;;4997301;28;20058;-76
2022/10/26 05:37:03;;;;;;;16.45;2.92;;;21.60;97.30;;;;;;4997706;28;20080;-75
2022/10/26 05:39:29;;;;;;;22.38;3.80;;;21.60;97.40;;;;;;5015497;28;20029;-77
2022/10/26 05:41:55;;;;;;;17.48;2.55;;;21.50;97.40;;;;;;5014929;28;20056;-77
2022/10/26 05:44:21;;;;;;;12.80;2.90;;;21.60;97.40;;;;;;5015319;28;20029;-75
2022/10/26 05:46:47;;;;;;;17.45;3.22;;;21.60;97.30;;;;;;5014734;28;20030;-76
2022/10/26 05:49:14;;;;;;;13.32;3.25;;;21.60;97.20;;;;;;5015271;28;20049;-77
2022/10/26 05:51:47;;;;;;;14.38;3.47;;;21.60;97.30;;;;;;5014586;28;20122;-76
2022/10/26 05:54:13;;;;;;;20.35;3.13;;;21.70;97.10;;;;;;5025831;28;20031;-76
2022/10/26 05:56:40;;;;;;;23.15;3.65;;;22.00;96.90;;;;;;5033720;28;20021;-77
2022/10/26 05:59:14;;;;;;;12.50;2.85;;;22.40;96.50;;;;;;5034150;28;20048;-77
2022/10/26 06:02:13;;;;;;;20.17;3.15;;;22.70;96.20;;;;;;5032833;28;20068;-76
2022/10/26 06:04:46;;;;;;;11.85;2.42;;;23.10;95.90;;;;;;5034558;28;20022;-77
2022/10/26 06:07:20;;;;;;;13.95;2.70;;;23.40;95.60;;;;;;5033540;28;20049;-78
2022/10/26 06:09:47;;;;;;;12.90;2.60;;;23.70;95.40;;;;;;5034625;28;20025;-78
2022/10/26 06:12:16;;;;;;;19.63;3.22;;;24.00;95.20;;;;;;5016608;28;20021;-80
2022/10/26 06:14:44;;;;;;;22.65;3.90;;;24.30;94.80;;;;;;5034649;28;20075;-79
2022/10/26 06:17:27;;;;;;;11.98;2.60;;;24.50;94.80;;;;;;5034844;28;20148;-79
2022/10/26 06:20:41;;;;;;;19.17;3.85;;;24.70;94.70;;;;;;5031004;28;20036;-73
2022/10/26 06:23:32;;;;;;;13.43;2.80;;;25.10;94.30;;;;;;4940534;28;20052;-73
2022/10/26 06:26:16;;;;;;;16.90;3.65;;;25.70;94.00;;;;;;5035223;28;20047;-73
2022/10/26 06:29:00;;;;;;;11.40;2.50;;;26.20;93.60;;;;;;5035528;28;20517;-72
2022/10/26 06:31:26;;;;;;;17.58;3.45;;;26.10;93.40;;;;;;5034898;28;20057;-74
2022/10/26 06:33:58;;;;;;;16.17;2.55;;;26.00;93.60;;;;;;5034936;28;20026;-75
2022/10/26 06:36:27;;;;;;;17.38;2.75;;;26.00;93.70;;;;;;5034836;28;20022;-71
2022/10/26 06:38:59;;;;;;;14.20;2.70;;;26.40;93.50;;;;;;5034749;28;20033;-72
2022/10/26 06:41:26;;;;;;;16.90;2.70;;;26.50;93.20;;;;;;5034875;28;20441;-75
2022/10/26 06:43:52;;;;;;;;;;;26.70;93.20;;;;;;5034621;28;20108;-75
2022/10/26 06:46:36;;;;;;;;;;;27.20;92.60;;;;;;5034445;28;19995;-75
2022/10/26 06:49:28;;;;;;;17.85;2.88;;;27.30;92.30;;;;;;5034674;28;19916;-74
2022/10/26 06:52:23;;;;;;;11.52;2.85;;;28.00;91.90;;;;;;5033940;28;20044;-76
2022/10/26 06:55:00;;;;;;;16.13;3.00;;;28.10;92.00;;;;;;5034591;28;20026;-76
2022/10/26 06:57:34;;;;;;;17.92;2.90;;;28.50;91.80;;;;;;5016210;28;20021;-76
2022/10/26 07:00:08;;;;;;;15.07;2.80;;;28.70;91.40;;;;;;5034211;28;20085;-75
2022/10/26 07:02:34;;;;;;;20.23;3.10;;;29.20;90.90;;;;;;5032769;28;20107;-78
2022/10/26 07:05:00;;;;;;;14.57;3.38;;;29.20;90.70;;;;;;5016526;28;20068;-77
2022/10/26 07:07:29;;;;;;;;;;;29.60;90.40;;;;;;5016592;28;20056;-77
2022/10/26 07:09:57;;;;;;;21.17;3.03;;;29.80;89.90;;;;;;5034275;28;19928;-75
2022/10/26 07:12:24;;;;;;;21.60;3.20;;;29.50;90.00;;;;;;5016222;28;20034;-77
2022/10/26 07:14:51;;;;;;;13.85;3.20;;;29.30;90.20;;;;;;5033843;28;20033;-77
2022/10/26 07:17:18;;;;;;;16.75;3.88;;;29.00;90.20;;;;;;5033668;28;20029;-77
2022/10/26 07:19:46;;;;;;;16.35;3.35;;;28.80;90.30;;;;;;5016091;28;20107;-78
2022/10/26 07:22:13;;;;;;;15.82;3.35;;;28.40;90.30;;;;;;5033643;28;20033;-78
2022/10/26 07:24:39;;;;;;;19.25;3.60;;;28.50;90.60;;;;;;5015898;28;20481;-76
2022/10/26 07:27:05;;;;;;;16.55;3.00;;;28.60;90.30;;;;;;5033984;28;20064;-75
2022/10/26 07:29:32;;;;;;;18.95;3.17;;;28.30;92.30;;;;;;5033436;28;20040;-74
2022/10/26 07:31:58;;;;;;;15.30;2.85;;;27.90;90.60;;;;;;5015683;28;20037;-74
2022/10/26 07:34:25;;;;;;;20.63;3.60;;;27.50;90.80;;;;;;5033435;28;20025;-73
2022/10/26 07:36:51;;;;;;;17.10;3.13;;;27.00;92.00;;;;;;5033161;28;20027;-72
2022/10/26 07:39:17;;;;;;;21.50;3.38;;;26.60;91.40;;;;;;5033730;28;20623;-75
2022/10/26 07:41:46;;;;;;;15.77;3.03;;;26.50;91.50;;;;;;5015721;28;20030;-75
2022/10/26 07:44:12;;;;;;;19.55;3.58;;;26.50;91.60;;;;;;5033507;28;20076;-75
2022/10/26 07:46:38;;;;;;;17.25;3.20;;;26.70;91.40;;;;;;5033298;28;20045;-73
2022/10/26 07:49:04;;;;;;;21.65;3.65;;;26.70;91.30;;;;;;5033209;28;20033;-76
2022/10/26 07:51:30;;;;;;;14.02;3.20;;;26.70;91.50;;;;;;5032251;28;20060;-74
2022/10/26 07:53:58;;;;;;;16.98;3.80;;;26.70;91.40;;;;;;5031787;28;20025;-74
2022/10/26 07:56:25;;;;;;;21.25;3.30;;;26.90;91.50;;;;;;5032364;28;20025;-74
2022/10/26 07:58:54;;;;;;;17.08;3.63;;;27.00;91.30;;;;;;5014117;28;20168;-74
2022/10/26 08:01:21;;;;;;;28.77;3.17;;;27.00;91.10;;;;;;5032330;28;20026;-75
2022/10/26 08:03:52;;;;;;;20.08;3.40;;;27.10;91.00;;;;;;5014377;28;20037;-74
2022/10/26 08:06:22;;;;;;;16.83;3.20;;;27.20;90.90;;;;;;5031188;28;20179;-73
2022/10/26 08:08:49;;;;;;;17.40;3.50;;;27.30;91.30;;;;;;5031854;28;20029;-74
2022/10/26 08:11:15;;;;;;;;;;;27.30;90.90;;;;;;5032004;28;20381;-74
2022/10/26 08:13:42;;;;;;;16.33;3.70;;;27.40;90.80;;;;;;5031727;28;19916;-75
2022/10/26 08:16:12;;;;;;;18.38;3.40;;;27.60;90.60;;;;;;5030023;28;20030;-73
2022/10/26 08:18:39;;;;;;;16.33;2.75;;;27.70;90.70;;;;;;5030428;28;20025;-74
2022/10/26 08:21:11;;;;;;;13.95;3.42;;;28.00;90.40;;;;;;5032192;28;20033;-74
2022/10/26 08:23:37;;;;;;;20.30;3.35;;;28.00;90.40;;;;;;5032531;28;20037;-73
2022/10/26 08:26:04;;;;;;;13.68;3.33;;;28.00;90.10;;;;;;5013979;28;20026;-74
2022/10/26 08:28:30;;;;;;;12.27;3.00;;;28.10;89.60;;;;;;5032516;28;20037;-74
2022/10/26 08:30:57;;;;;;;22.00;3.70;;;28.10;89.70;;;;;;5032308;28;20029;-74
2022/10/26 08:33:24;;;;;;;15.70;3.63;;;28.10;90.00;;;;;;5032071;28;20072;-74
2022/10/26 08:36:00;;;;;;;18.65;3.58;;;28.20;90.00;;;;;;5032874;28;20048;-74
2022/10/26 08:38:30;;;;;;;18.40;3.60;;;28.50;90.20;;;;;;5014764;28;20512;-74
2022/10/26 08:40:57;;;;;;;18.73;3.75;;;28.70;90.20;;;;;;5032354;28;20080;-73
2022/10/26 08:44:11;;;;;;;25.02;4.63;;;29.00;90.40;;;;;;5014368;28;20556;-73
2022/10/26 08:46:45;;;;;;;20.88;4.25;;;29.20;89.90;;;;;;4954233;28;20041;-74
2022/10/26 08:49:24;;;;;;;23.55;3.50;;;29.40;90.80;;;;;;4971273;28;20074;-73
2022/10/26 08:51:55;;;;;;;19.13;3.63;;;29.60;91.60;;;;;;4970419;28;20146;-73
2022/10/26 08:54:49;;;;;;;18.15;3.78;;;29.70;92.70;;;;;;4970513;28;20030;-73
2022/10/26 08:57:25;;;;;;;28.60;4.35;;;29.70;93.60;;;;;;4953400;28;20090;-73
2022/10/26 09:00:14;;;;;;;20.48;3.83;;;29.50;94.70;;;;;;4970708;28;20455;-73
2022/10/26 09:02:40;;;;;;;22.83;4.22;;;29.40;95.30;;;;;;4954552;28;20031;-74
2022/10/26 09:05:14;;;;;;;;;;;29.30;95.90;;;;;;4971196;28;20160;-73
2022/10/26 09:08:10;;;;;;;18.52;3.83;;;29.30;96.10;;;;;;4971472;28;19969;-73
2022/10/26 09:10:52;;;;;;;18.05;3.88;;;29.30;96.00;;;;;;4970883;28;20069;-74
2022/10/26 09:13:24;;;;;;;24.38;4.63;;;29.10;96.80;;;;;;4970227;28;20031;-71
2022/10/26 09:15:57;;;;;;;16.35;3.53;;;29.00;96.90;;;;;;4970576;28;20437;-71
2022/10/26 09:18:54;;;;;;;17.35;3.80;;;29.00;97.80;;;;;;4970873;28;20419;-72
2022/10/26 09:21:54;;;;;;;16.70;3.88;;;28.90;98.00;;;;;;4971164;28;20538;-73
2022/10/26 09:24:35;;;;;;;20.60;3.70;;;29.00;98.80;;;;;;5031834;28;20064;-72
2022/10/26 09:27:27;;;;;;;16.33;3.28;;;28.80;99.90;;;;;;5031900;28;20025;-72
2022/10/26 09:30:03;;;;;;;18.20;3.83;;;28.70;99.90;;;;;;5031649;28;20101;-72
2022/10/26 09:32:40;;;;;;;17.50;3.38;;;28.70;99.90;;;;;;5012780;28;20030;-74
2022/10/26 09:35:19;;;;;;;15.90;3.58;;;28.70;99.90;;;;;;5015126;28;20130;-73
2022/10/26 09:37:53;;;;;;;23.77;4.20;;;28.70;99.90;;;;;;5016369;28;20038;-73
2022/10/26 09:40:30;;;;;;;18.45;3.33;;;28.70;99.90;;;;;;5035052;28;20044;-74
2022/10/26 09:43:06;;;;;;;15.48;3.78;;;28.80;99.90;;;;;;5032365;28;20041;-73
2022/10/26 09:45:38;;;;;;;22.60;3.83;;;28.90;99.90;;;;;;5029834;28;20079;-74
2022/10/26 09:48:21;;;;;;;14.77;3.85;;;28.80;99.90;;;;;;5016899;28;20033;-74
2022/10/26 09:50:52;;;;;;;20.20;3.95;;;28.80;99.90;;;;;;5034810;28;20111;-73
2022/10/26 09:53:19;;;;;;;21.73;7.90;;;28.80;99.90;;;;;;5001195;28;20030;-74
2022/10/26 09:55:47;;;;;;;14.18;4.70;;;29.00;99.90;;;;;;5035432;28;20128;-74
2022/10/26 09:58:20;;;;;;;20.83;4.72;;;29.10;99.90;;;;;;5017032;28;20428;-73
2022/10/26 10:00:48;;;;;;;16.15;4.45;;;29.00;99.90;;;;;;5035043;28;20064;-72
2022/10/26 10:03:26;;;;;;;21.23;4.68;;;29.00;99.90;;;;;;5035050;28;20074;-73
2022/10/26 10:05:52;;;;;;;29.48;5.30;;;28.90;99.90;;;;;;5034171;28;20475;-74
2022/10/26 10:08:26;;;;;;;15.82;4.75;;;28.90;99.90;;;;;;5017256;28;20092;-73
2022/10/26 10:11:08;;;;;;;16.00;4.25;;;29.00;99.90;;;;;;5034178;28;20108;-74
2022/10/26 10:13:40;;;;;;;24.15;6.70;;;29.10;99.90;;;;;;5016308;28;20090;-74
2022/10/26 10:16:22;;;;;;;20.17;6.15;;;29.10;99.90;;;;;;5034330;28;20101;-74
2022/10/26 10:18:58;;;;;;;23.23;6.88;;;29.10;99.90;;;;;;5033931;28;20454;-74
2022/10/26 10:21:43;;;;;;;30.05;7.57;;;29.10;99.90;;;;;;5015813;28;20022;-76
2022/10/26 10:24:27;;;;;;;22.73;7.45;;;29.10;99.90;;;;;;5016309;28;20029;-74
2022/10/26 10:27:15;;;;;;;25.88;7.43;;;29.20;99.90;;;;;;5033685;28;20037;-75
2022/10/26 10:30:18;;;;;;;25.70;6.68;;;29.20;99.90;;;;;;5033913;28;20039;-76
2022/10/26 10:32:45;;;;;;;19.00;7.28;;;29.30;99.90;;;;;;4999801;28;20080;-75
2022/10/26 10:35:28;;;;;;;21.10;5.53;;;29.40;99.90;;;;;;5015987;28;20033;-76
2022/10/26 10:37:56;;;;;;;20.40;4.95;;;29.40;99.50;;;;;;5034111;28;20362;-74
2022/10/26 10:40:30;;;;;;;20.38;4.82;;;29.20;99.20;;;;;;5016842;28;20057;-74
2022/10/26 10:43:27;;;;;;;18.30;4.18;;;29.30;99.40;;;;;;5034226;28;20076;-73
2022/10/26 10:45:57;;;;;;;14.02;4.07;;;29.60;99.60;;;;;;4973033;28;20043;-73
2022/10/26 10:48:29;;;;;;;17.02;4.25;;;29.20;99.90;;;;;;4940534;28;20039;-74
2022/10/26 10:51:02;;;;;;;24.77;4.20;;;29.10;99.90;;;;;;4972158;28;20049;-73
2022/10/26 10:53:57;;;;;;;19.27;4.20;;;29.10;99.90;;;;;;4972890;28;20035;-74
2022/10/26 10:56:34;;;;;;;20.80;4.15;;;29.20;99.90;;;;;;4953497;29;20039;-73
2022/10/26 10:59:16;;;;;;;19.13;3.83;;;29.20;99.30;;;;;;4952953;29;20031;-73
2022/10/26 11:01:54;;;;;;;13.25;3.67;;;29.30;99.50;;;;;;4953032;29;20128;-73
2022/10/26 11:04:46;;;;;;;15.85;3.55;;;29.40;99.40;;;;;;4952137;29;20118;-74
2022/10/26 11:07:14;;;;;;;12.57;3.47;;;29.60;99.20;;;;;;4942232;29;20055;-75
2022/10/26 11:09:45;;;;;;;12.80;2.83;;;29.80;99.00;;;;;;4952904;29;20046;-73
2022/10/26 11:12:22;;;;;;;18.30;3.40;;;29.90;98.50;;;;;;4953215;29;20199;-76
2022/10/26 11:14:58;;;;;;;13.25;3.42;;;30.00;97.30;;;;;;4952683;29;20031;-76
2022/10/26 11:17:31;;;;;;;16.45;3.95;;;30.10;97.40;;;;;;4952476;29;20057;-75
2022/10/26 11:20:11;;;;;;;18.25;3.03;;;30.20;97.90;;;;;;4953040;29;20055;-74
2022/10/26 11:23:04;;;;;;;17.55;3.42;;;30.30;98.40;;;;;;4978071;28;20036;-75
2022/10/26 11:25:59;;;;;;;14.52;3.20;;;30.30;98.70;;;;;;4983175;28;20045;-75
2022/10/26 11:28:42;;;;;;;15.25;3.08;;;30.40;98.60;;;;;;4971017;28;20042;-75
2022/10/26 11:31:17;;;;;;;16.73;3.47;;;30.40;98.60;;;;;;4991886;28;20034;-75
2022/10/26 11:34:04;;;;;;;16.88;3.53;;;30.20;98.80;;;;;;5028913;28;20068;-76
2022/10/26 11:36:52;;;;;;;16.42;2.92;;;30.00;99.10;;;;;;5029434;28;20366;-76
2022/10/26 11:39:24;;;;;;;15.30;3.13;;;30.10;99.00;;;;;;5013142;28;20127;-75
2022/10/26 11:42:33;;;;;;;19.30;3.50;;;30.20;98.90;;;;;;4993596;28;20346;-74
2022/10/26 11:45:14;;;;;;;20.75;3.33;;;30.30;98.70;;;;;;4981222;28;20075;-75
2022/10/26 11:47:48;;;;;;;19.92;3.50;;;30.40;98.70;;;;;;5002740;28;20040;-76
2022/10/26 11:50:44;;;;;;;16.02;3.25;;;30.60;98.70;;;;;;5032376;28;20046;-75
2022/10/26 11:53:40;;;;;;;18.15;3.20;;;30.70;98.60;;;;;;5027158;28;20348;-76
2022/10/26 11:56:15;;;;;;;15.00;4.05;;;30.70;98.80;;;;;;5017357;28;20101;-75
2022/10/26 11:58:42;;;;;;;;;;;30.50;98.30;;;;;;5013249;28;20331;-76
2022/10/26 12:01:11;;;;;;;14.93;3.30;;;30.40;98.50;;;;;;5012449;28;19905;-74
2022/10/26 12:03:44;;;;;;;19.30;3.92;;;30.20;98.30;;;;;;4994254;28;20030;-74
2022/10/26 12:06:12;;;;;;;14.75;3.33;;;30.20;97.60;;;;;;5012936;28;20462;-74
2022/10/26 12:09:03;;;;;;;13.40;3.35;;;30.10;96.60;;;;;;5012956;28;20044;-74
2022/10/26 12:11:45;;;;;;;21.05;3.53;;;30.10;96.90;;;;;;5013491;28;20026;-76
2022/10/26 12:14:32;;;;;;;25.73;3.85;;;30.00;97.10;;;;;;5012785;28;20025;-74
2022/10/26 12:17:41;;;;;;;17.35;4.22;;;29.80;97.40;;;;;;5012960;28;20044;-74
2022/10/26 12:20:47;;;;;;;23.02;4.28;;;30.00;97.10;;;;;;4953470;29;20063;-76
2022/10/26 12:23:51;;;;;;;19.95;3.78;;;30.10;98.70;;;;;;4939847;29;20369;-76
2022/10/26 12:26:23;;;;;;;25.67;4.38;;;30.10;98.80;;;;;;4953073;29;20050;-76
2022/10/26 12:29:41;;;;;;;17.17;3.90;;;30.30;98.80;;;;;;4937174;29;20383;-75
2022/10/26 12:32:34;;;;;;;14.15;3.72;;;30.20;99.70;;;;;;4876841;29;20038;-75
2022/10/26 12:35:21;;;;;;;19.90;3.95;;;30.10;99.70;;;;;;4874199;29;20491;-76
2022/10/26 12:37:49;;;;;;;19.55;3.50;;;30.10;99.50;;;;;;4860547;29;20025;-75
2022/10/26 12:40:39;;;;;;;16.75;3.85;;;30.30;99.60;;;;;;4876275;29;20036;-75
2022/10/26 12:43:14;;;;;;;15.52;3.60;;;30.30;99.30;;;;;;4876936;29;20037;-76
2022/10/26 12:45:43;;;;;;;15.75;3.30;;;30.40;99.00;;;;;;4876341;29;20063;-76
2022/10/26 12:48:39;;;;;;;17.13;3.70;;;30.50;98.60;;;;;;4876162;29;20115;-75
2022/10/26 12:51:34;;;;;;;19.50;5.93;;;30.50;98.20;;;;;;4894081;29;20040;-75
2022/10/26 12:54:20;;;;;;;20.48;6.88;;;30.40;98.60;;;;;;4920321;29;20032;-73
2022/10/26 12:57:15;;;;;;;19.13;5.13;;;30.40;99.10;;;;;;4933074;29;20537;-76
2022/10/26 13:00:03;;;;;;;19.85;4.00;;;30.20;98.70;;;;;;4932779;29;20122;-76
2022/10/26 13:03:13;;;;;;;18.38;3.45;;;29.80;99.00;;;;;;4932793;29;20032;-73
2022/10/26 13:06:12;;;;;;;24.92;3.88;;;29.70;99.50;;;;;;4932961;29;20120;-76
2022/10/26 13:09:05;;;;;;;20.17;4.25;;;29.50;99.90;;;;;;4965220;28;20042;-75
2022/10/26 13:11:34;;;;;;;16.15;3.55;;;29.60;99.90;;;;;;4992984;28;20049;-75
2022/10/26 13:14:17;;;;;;;12.65;3.90;;;29.70;99.90;;;;;;4978684;28;20042;-74
2022/10/26 13:16:47;;;;;;;15.52;3.30;;;29.80;99.90;;;;;;4996684;28;20491;-74
2022/10/26 13:19:31;;;;;;;16.02;3.10;;;29.90;99.90;;;;;;4996714;28;20032;-74